createdAt,value
2023-03-02T00:10:40.860Z,50.76
2023-03-02T00:11:40.621Z,50.04
2023-03-02T00:12:40.800Z,50.17
2023-03-02T00:13:40.532Z,50.01
2023-03-02T00:14:40.549Z,50.07
2023-03-02T00:15:40.569Z,49.77
2023-03-02T00:16:40.551Z,49.74
2023-03-02T00:17:40.495Z,49.85
2023-03-02T00:18:40.518Z,49.63
2023-03-02T00:19:40.462Z,50.01
2023-03-02T00:20:40.484Z,49.59
2023-03-02T00:21:40.484Z,49.55
2023-03-02T00:22:40.487Z,49.70
2023-03-02T00:23:40.491Z,49.37
2023-03-02T00:24:40.443Z,49.38
2023-03-02T00:25:40.462Z,49.37
2023-03-02T00:26:40.465Z,49.35
2023-03-02T00:27:40.458Z,49.55
2023-03-02T00:28:40.438Z,49.67
2023-03-02T00:29:40.417Z,49.94
2023-03-02T00:30:40.445Z,49.89
2023-03-02T00:31:40.507Z,49.91
2023-03-02T01:19:39.235Z,49.61
2023-03-02T01:20:39.147Z,49.30
2023-03-02T01:25:43.226Z,49.94
2023-03-02T01:26:43.186Z,49.44
2023-03-02T01:27:59.432Z,49.58
2023-03-02T01:28:43.183Z,49.93
2023-03-02T01:29:43.694Z,49.67
2023-03-02T01:30:43.200Z,49.42
2023-03-02T01:31:43.157Z,49.88
2023-03-02T01:32:43.161Z,50.06
2023-03-02T01:33:43.186Z,50.09
2023-03-02T01:34:43.387Z,50.02
2023-03-02T01:35:43.159Z,50.07
2023-03-02T01:36:43.057Z,49.50
2023-03-02T01:37:43.049Z,49.62
2023-03-02T01:38:43.120Z,49.59
2023-03-02T01:39:43.040Z,50.00
2023-03-02T01:40:43.046Z,49.84
2023-03-02T01:41:43.014Z,49.52
2023-03-02T01:42:43.028Z,49.40
2023-03-02T01:43:43.006Z,49.50
2023-03-02T01:44:43.035Z,49.58
2023-03-02T01:45:43.061Z,49.56
2023-03-02T01:46:42.961Z,49.60
2023-03-02T01:47:43.061Z,49.50
2023-03-02T01:48:43.062Z,49.74
2023-03-02T01:49:43.121Z,49.47
2023-03-02T01:50:43.187Z,49.44
2023-03-02T01:51:43.252Z,49.63
2023-03-02T01:52:43.322Z,49.59
2023-03-02T01:53:43.343Z,49.74
2023-03-02T01:54:43.353Z,49.74
2023-03-02T01:55:43.402Z,49.81
2023-03-02T01:56:43.443Z,49.85
2023-03-02T01:57:43.663Z,50.10
2023-03-02T01:58:43.596Z,50.36
2023-03-02T01:59:43.704Z,50.52
2023-03-02T02:00:43.733Z,50.20
2023-03-02T02:01:43.728Z,49.99
2023-03-02T02:02:43.768Z,50.03
2023-03-02T02:03:43.882Z,50.10
2023-03-02T02:04:43.894Z,50.39
2023-03-02T02:05:43.946Z,50.66
2023-03-02T02:06:43.993Z,50.75
2023-03-02T02:07:44.027Z,50.75
2023-03-02T02:08:44.111Z,50.78
2023-03-02T02:09:44.194Z,50.78
2023-03-02T02:10:44.282Z,50.87
2023-03-02T02:11:44.319Z,50.67
2023-03-02T02:12:44.360Z,50.81
2023-03-02T02:13:44.426Z,50.77
2023-03-02T02:14:44.528Z,50.64
2023-03-02T02:15:44.532Z,50.43
2023-03-02T02:16:44.673Z,50.41
2023-03-02T02:17:44.681Z,50.15
2023-03-02T02:18:44.751Z,49.99
2023-03-02T02:19:44.798Z,50.10
2023-03-02T02:20:44.834Z,50.00
2023-03-02T02:21:44.892Z,50.00
2023-03-02T02:22:44.944Z,50.12
2023-03-02T02:23:45.010Z,50.10
2023-03-02T02:24:45.046Z,50.17
2023-03-02T02:25:45.109Z,50.12
2023-03-02T02:26:45.156Z,49.42
2023-03-02T02:27:45.177Z,49.38
2023-03-02T02:28:45.226Z,49.38
2023-03-02T02:30:45.332Z,49.29
2023-03-02T02:31:46.290Z,49.08
2023-03-02T02:32:45.239Z,48.99
2023-03-02T02:33:45.229Z,48.74
2023-03-02T02:34:45.186Z,48.50
2023-03-02T02:35:45.198Z,48.38
2023-03-02T02:36:45.208Z,48.57
2023-03-02T02:37:45.164Z,48.57
2023-03-02T02:38:45.171Z,48.52
2023-03-02T02:39:45.266Z,48.31
2023-03-02T02:40:45.443Z,48.31
2023-03-02T02:41:45.189Z,48.31
2023-03-02T02:42:45.139Z,48.65
2023-03-02T02:43:45.155Z,48.81
2023-03-02T02:44:45.163Z,48.68
2023-03-02T02:45:45.159Z,48.74
2023-03-02T02:46:45.133Z,48.88
2023-03-02T02:47:45.114Z,49.15
2023-03-02T03:19:46.309Z,49.65
2023-03-02T03:20:46.392Z,49.54
2023-03-02T03:21:46.445Z,49.78
2023-03-02T03:22:46.493Z,49.89
2023-03-02T03:23:46.554Z,49.94
2023-03-02T03:24:46.611Z,50.19
2023-03-02T03:25:46.613Z,50.30
2023-03-02T03:26:46.727Z,50.18
2023-03-02T03:27:46.789Z,50.15
2023-03-02T03:43:30.800Z,49.92
2023-03-02T03:44:30.646Z,49.68
2023-03-02T03:45:30.598Z,49.91
2023-03-02T03:46:30.840Z,50.26
2023-03-02T03:47:30.516Z,50.33
2023-03-02T03:48:30.519Z,50.31
2023-03-02T03:49:30.481Z,50.44
2023-03-02T03:50:30.487Z,50.64
2023-03-02T03:51:30.465Z,50.50
2023-03-02T03:52:30.566Z,50.36
2023-03-02T03:53:30.451Z,50.31
2023-03-02T03:54:30.521Z,50.42
2023-03-02T03:55:30.547Z,50.55
2023-03-02T03:56:30.789Z,50.56
2023-03-02T03:57:30.443Z,50.57
2023-03-02T03:58:30.503Z,50.78
2023-03-02T03:59:30.437Z,50.89
2023-03-02T04:00:30.413Z,50.95
2023-03-02T04:01:30.432Z,51.04
2023-03-02T04:02:30.477Z,51.06
2023-03-02T04:03:30.400Z,50.96
2023-03-02T04:04:30.380Z,51.00
2023-03-02T04:05:31.685Z,50.99
2023-03-02T04:06:30.594Z,50.95
2023-03-02T04:07:30.409Z,50.98
2023-03-02T04:08:30.337Z,50.89
2023-03-02T04:09:30.342Z,50.67
2023-03-02T04:10:30.370Z,50.52
2023-03-02T04:11:30.367Z,50.35
2023-03-02T04:12:30.360Z,50.26
2023-03-02T04:13:30.342Z,50.58
2023-03-02T04:14:30.346Z,50.64
2023-03-02T04:15:30.311Z,50.79
2023-03-02T04:16:30.676Z,50.60
2023-03-02T04:17:30.310Z,50.41
2023-03-02T04:18:30.289Z,50.36
2023-03-02T04:19:30.324Z,50.39
2023-03-02T04:20:30.304Z,50.44
2023-03-02T04:21:30.296Z,50.53
2023-03-02T04:22:30.286Z,50.81
2023-03-02T04:23:30.282Z,50.79
2023-03-02T04:24:30.227Z,50.58
2023-03-02T04:25:30.246Z,50.67
2023-03-02T04:26:30.539Z,50.80
2023-03-02T04:27:30.220Z,50.95
2023-03-02T04:28:30.246Z,50.94
2023-03-02T04:29:30.252Z,51.06
2023-03-02T04:30:30.282Z,51.37
2023-03-02T04:31:30.513Z,51.05
2023-03-02T04:32:30.352Z,50.99
2023-03-02T04:33:30.404Z,51.15
2023-03-02T04:34:30.420Z,50.85
2023-03-02T04:35:30.545Z,50.65
2023-03-02T04:36:32.780Z,50.70
2023-03-02T04:37:30.482Z,50.64
2023-03-02T04:38:30.506Z,50.67
2023-03-02T04:39:30.502Z,50.78
2023-03-02T04:40:30.589Z,51.00
2023-03-02T04:41:30.563Z,50.92
2023-03-02T04:42:30.589Z,50.92
2023-03-02T04:43:30.685Z,51.11
2023-03-02T04:44:30.739Z,51.21
2023-03-02T04:46:51.481Z,51.82
2023-03-02T04:47:51.145Z,51.70
2023-03-02T04:48:51.330Z,51.58
2023-03-02T05:10:21.369Z,53.04
2023-03-02T05:11:21.664Z,52.11
2023-03-02T05:16:37.944Z,53.52
2023-03-02T05:17:37.657Z,52.37
2023-03-02T05:18:37.473Z,51.89
2023-03-02T05:19:37.430Z,51.61
2023-03-02T05:24:18.266Z,51.92
2023-03-02T05:25:17.956Z,51.54
2023-03-02T05:26:18.196Z,51.43
2023-03-02T05:27:17.884Z,51.31
2023-03-02T05:28:17.884Z,51.18
2023-03-02T05:29:17.835Z,51.16
2023-03-02T05:30:17.822Z,51.25
2023-03-02T05:31:17.923Z,51.38
2023-03-02T05:32:17.862Z,51.48
2023-03-02T05:33:17.779Z,51.60
2023-03-02T05:34:17.828Z,51.60
2023-03-02T05:35:17.825Z,51.70
2023-03-02T05:36:19.523Z,51.91
2023-03-02T05:37:17.797Z,52.00
2023-03-02T05:38:17.791Z,52.10
2023-03-02T05:39:17.794Z,52.26
2023-03-02T05:40:17.748Z,52.25
2023-03-02T05:41:17.767Z,52.13
2023-03-02T05:42:17.771Z,52.07
2023-03-02T05:43:17.748Z,52.10
2023-03-02T05:44:17.748Z,52.02
2023-03-02T05:45:17.777Z,51.87
2023-03-02T05:46:18.707Z,51.80
2023-03-02T05:47:17.729Z,51.89
2023-03-02T05:49:37.618Z,52.08
2023-03-02T05:50:37.750Z,51.76
2023-03-02T05:51:37.498Z,51.60
2023-03-02T05:52:37.502Z,51.47
2023-03-02T05:53:37.510Z,51.53
2023-03-02T05:54:37.571Z,51.61
2023-03-02T05:55:37.476Z,51.66
2023-03-02T05:56:37.476Z,51.51
2023-03-02T05:57:37.483Z,51.41
2023-03-02T05:58:37.430Z,51.15
2023-03-02T05:59:37.453Z,51.00
2023-03-02T06:02:58.129Z,50.80
2023-03-02T06:03:57.675Z,50.66
2023-03-02T06:05:57.703Z,50.51
2023-03-02T06:06:57.623Z,50.62
2023-03-02T06:07:57.654Z,50.72
2023-03-02T06:08:57.679Z,50.72
2023-03-02T06:34:57.467Z,49.68
2023-03-02T06:39:57.499Z,49.75
2023-03-02T06:41:57.441Z,49.78
2023-03-02T06:47:18.837Z,50.36
2023-03-02T06:48:18.264Z,49.96
2023-03-02T06:49:17.869Z,49.86
2023-03-02T06:50:18.117Z,49.83
2023-03-02T06:52:37.815Z,50.17
2023-03-02T06:54:58.946Z,50.26
2023-03-02T07:53:31.795Z,48.94
2023-03-02T07:54:31.332Z,48.75
2023-03-02T07:55:31.323Z,48.61
2023-03-02T07:56:31.686Z,48.86
2023-03-02T07:57:31.743Z,49.11
2023-03-02T07:58:31.258Z,48.69
2023-03-02T07:59:31.236Z,48.33
2023-03-02T08:00:31.240Z,48.35
2023-03-02T08:01:31.670Z,48.69
2023-03-02T08:02:31.201Z,48.57
2023-03-02T08:03:31.171Z,48.78
2023-03-02T08:04:31.209Z,48.70
2023-03-02T08:05:31.220Z,48.49
2023-03-02T08:06:31.179Z,48.40
2023-03-02T08:07:31.189Z,48.17
2023-03-02T08:08:31.129Z,47.77
2023-03-02T08:09:31.149Z,47.44
2023-03-02T08:10:31.162Z,47.32
2023-03-02T08:11:31.407Z,47.13
2023-03-02T08:12:31.176Z,46.98
2023-03-02T08:13:31.156Z,46.78
2023-03-02T08:14:31.171Z,46.51
2023-03-02T08:15:31.149Z,46.20
2023-03-02T08:16:31.237Z,46.67
2023-03-02T08:17:31.107Z,46.80
2023-03-02T08:18:31.077Z,46.58
2023-03-02T08:19:31.144Z,45.98
2023-03-02T08:20:31.337Z,45.71
2023-03-02T08:21:31.791Z,45.67
2023-03-02T08:22:31.137Z,45.84
2023-03-02T08:23:31.154Z,45.87
2023-03-02T08:24:31.058Z,45.32
2023-03-02T08:25:31.135Z,45.06
2023-03-02T08:26:31.013Z,44.76
2023-03-02T08:28:52.406Z,44.98
2023-03-02T08:31:26.753Z,43.73
2023-03-02T08:39:52.621Z,41.84
2023-03-02T09:35:59.446Z,21.66
2023-03-02T09:38:28.172Z,21.71
2023-03-02T09:42:44.353Z,21.32
2023-03-02T09:43:43.119Z,21.72
2023-03-02T09:54:36.947Z,23.49
2023-03-02T10:22:40.815Z,22.93
2023-03-02T10:23:40.433Z,23.64
2023-03-02T10:24:40.464Z,23.91
2023-03-02T10:25:40.422Z,23.60
2023-03-02T10:26:40.481Z,23.42
2023-03-02T11:13:06.537Z,20.52
2023-03-02T11:15:07.080Z,20.46
2023-03-02T11:19:06.351Z,21.27
2023-03-02T11:20:06.397Z,21.24
2023-03-02T11:21:06.364Z,21.23
2023-03-02T11:22:06.369Z,21.13
2023-03-02T11:23:06.467Z,20.72
2023-03-02T11:24:07.208Z,20.72
2023-03-02T11:25:06.438Z,21.04
2023-03-02T11:26:06.558Z,21.54
2023-03-02T11:27:06.484Z,21.92
2023-03-02T11:28:06.562Z,22.50
2023-03-02T11:35:07.000Z,23.12
2023-03-02T11:45:27.605Z,22.96
2023-03-02T11:47:51.570Z,22.79
2023-03-02T11:48:47.970Z,23.05
2023-03-02T11:49:51.530Z,23.04
2023-03-02T11:56:44.461Z,23.73
2023-03-02T12:04:51.472Z,23.93
2023-03-02T12:13:41.541Z,23.13
2023-03-02T12:14:41.737Z,22.28
2023-03-02T12:15:41.352Z,21.61
2023-03-02T12:16:41.339Z,21.55
2023-03-02T12:18:41.171Z,21.91
2023-03-02T12:19:40.879Z,21.81
2023-03-02T12:20:40.821Z,21.90
2023-03-02T12:21:40.782Z,22.41
2023-03-02T12:22:40.786Z,22.58
2023-03-02T12:23:42.282Z,22.23
2023-03-02T12:24:40.788Z,22.60
2023-03-02T12:25:40.789Z,22.30
2023-03-02T12:26:41.704Z,22.84
2023-03-02T12:27:40.781Z,22.45
2023-03-02T12:28:42.324Z,23.08
2023-03-02T12:34:39.147Z,22.33
2023-03-02T12:35:39.203Z,22.27
2023-03-02T12:36:39.101Z,21.68
2023-03-02T12:37:39.243Z,22.12
2023-03-02T12:38:39.807Z,22.21
2023-03-02T12:39:39.394Z,23.00
2023-03-02T12:40:39.286Z,22.77
2023-03-02T12:41:39.375Z,22.54
2023-03-02T12:42:39.754Z,23.12
2023-03-02T12:43:40.012Z,22.28
2023-03-02T12:44:39.412Z,22.62
2023-03-02T12:45:39.545Z,22.52
2023-03-02T12:46:39.506Z,22.23
2023-03-02T12:47:39.699Z,22.31
2023-03-02T12:49:03.274Z,22.19
2023-03-02T12:49:40.555Z,22.22
2023-03-02T12:50:39.540Z,21.87
2023-03-02T12:51:39.588Z,21.93
2023-03-02T12:52:39.552Z,21.53
2023-03-02T12:53:39.563Z,21.70
2023-03-02T12:54:39.587Z,22.17
2023-03-02T12:55:39.537Z,21.75
2023-03-02T12:56:39.604Z,22.12
2023-03-02T12:57:39.462Z,22.03
2023-03-02T12:58:39.467Z,21.37
2023-03-02T12:59:39.573Z,22.10
2023-03-02T13:00:39.479Z,21.11
2023-03-02T13:01:39.422Z,21.85
2023-03-02T13:02:39.451Z,21.32
2023-03-02T13:03:39.517Z,21.64
2023-03-02T13:04:39.427Z,21.62
2023-03-02T13:05:39.455Z,20.85
2023-03-02T13:06:39.457Z,21.00
2023-03-02T13:07:39.520Z,21.01
2023-03-02T13:08:39.579Z,21.31
2023-03-02T13:09:44.725Z,21.34
2023-03-02T13:10:40.727Z,21.16
2023-03-02T13:11:39.586Z,21.98
2023-03-02T13:12:39.561Z,21.28
2023-03-02T13:13:39.613Z,21.12
2023-03-02T13:14:39.502Z,21.19
2023-03-02T13:15:39.576Z,20.78
2023-03-02T13:16:39.514Z,20.79
2023-03-02T13:17:39.491Z,21.49
2023-03-02T13:18:39.570Z,21.33
2023-03-02T13:19:39.496Z,21.50
2023-03-02T13:20:39.544Z,21.14
2023-03-02T13:21:39.455Z,21.25
2023-03-02T13:22:39.519Z,21.46
2023-03-02T13:23:39.461Z,21.40
2023-03-02T13:24:40.488Z,21.13
2023-03-02T13:25:39.577Z,21.21
2023-03-02T13:26:39.600Z,21.71
2023-03-02T13:27:39.653Z,20.89
2023-03-02T13:28:39.664Z,21.26
2023-03-02T13:29:39.687Z,21.00
2023-03-02T13:30:39.777Z,20.64
2023-03-02T13:31:39.882Z,20.73
2023-03-02T13:32:39.749Z,20.38
2023-03-02T13:33:39.805Z,20.41
2023-03-02T13:34:39.814Z,21.01
2023-03-02T13:35:39.860Z,20.52
2023-03-02T13:39:19.186Z,20.30
2023-03-02T13:41:39.212Z,21.06
2023-03-02T13:42:39.058Z,20.84
2023-03-02T13:43:38.413Z,20.63
2023-03-02T13:44:38.436Z,20.76
2023-03-02T13:45:38.224Z,21.21
2023-03-02T13:46:41.791Z,21.52
2023-03-02T13:47:38.550Z,21.46
2023-03-02T13:49:57.458Z,21.19
2023-03-02T14:09:57.247Z,22.27
2023-03-02T14:10:54.957Z,23.08
2023-03-02T14:11:54.912Z,22.41
2023-03-02T14:12:54.906Z,22.33
2023-03-02T14:13:54.894Z,22.73
2023-03-02T14:14:55.008Z,22.88
2023-03-02T14:15:54.923Z,22.52
2023-03-02T14:16:54.872Z,22.26
2023-03-02T14:17:54.871Z,22.01
2023-03-02T14:18:54.866Z,22.77
2023-03-02T14:19:54.894Z,22.68
2023-03-02T14:20:54.825Z,22.34
2023-03-02T14:21:54.871Z,22.18
2023-03-02T14:22:54.798Z,22.48
2023-03-02T14:23:55.216Z,22.33
2023-03-02T14:24:54.819Z,22.12
2023-03-02T14:25:54.805Z,21.97
2023-03-02T14:26:54.810Z,21.86
2023-03-02T14:27:54.810Z,22.05
2023-03-02T14:29:05.011Z,22.17
2023-03-02T14:29:55.854Z,22.48
2023-03-02T14:30:54.773Z,23.29
2023-03-02T14:31:54.789Z,22.82
2023-03-02T14:32:54.750Z,22.76
2023-03-02T14:33:54.999Z,22.69
2023-03-02T14:34:54.788Z,22.89
2023-03-02T14:35:54.749Z,22.39
2023-03-02T14:36:54.902Z,22.22
2023-03-02T14:37:55.023Z,22.07
2023-03-02T14:38:55.218Z,22.19
2023-03-02T14:39:56.019Z,22.27
2023-03-02T14:40:55.735Z,22.55
2023-03-02T14:41:55.142Z,23.15
2023-03-02T14:42:54.889Z,23.27
2023-03-02T14:43:56.001Z,23.34
2023-03-02T14:44:55.038Z,23.69
2023-03-02T14:45:54.994Z,24.04
2023-03-02T14:46:55.008Z,23.67
2023-03-02T14:47:55.004Z,23.66
2023-03-02T14:48:55.030Z,23.87
2023-03-02T14:49:55.102Z,24.19
2023-03-02T14:50:55.035Z,24.45
2023-03-02T14:51:55.134Z,24.07
2023-03-02T14:52:55.146Z,24.02
2023-03-02T14:53:55.195Z,23.88
2023-03-02T14:54:55.202Z,23.51
2023-03-02T14:55:55.359Z,23.90
2023-03-02T14:56:55.269Z,24.07
2023-03-02T14:57:55.305Z,23.79
2023-03-02T14:58:55.298Z,23.84
2023-03-02T14:59:55.696Z,24.25
2023-03-02T15:00:55.326Z,23.81
2023-03-02T15:01:57.743Z,24.22
2023-03-02T15:02:55.471Z,24.63
2023-03-02T15:03:55.294Z,24.42
2023-03-02T15:04:56.433Z,24.97
2023-03-02T15:06:01.381Z,24.58
2023-03-02T16:44:13.834Z,35.83
2023-03-02T17:01:59.422Z,39.88
2023-03-02T17:02:59.243Z,38.83
2023-03-02T17:03:59.619Z,38.71
2023-03-02T17:04:59.453Z,38.30
2023-03-02T17:05:59.202Z,38.24
2023-03-02T17:07:00.772Z,38.24
2023-03-02T17:07:59.105Z,38.34
2023-03-02T17:08:59.111Z,38.73
2023-03-02T17:09:59.160Z,38.59
2023-03-02T17:10:59.085Z,38.61
2023-03-02T17:11:59.105Z,38.67
2023-03-02T17:12:59.103Z,38.82
2023-03-02T17:13:59.094Z,38.79
2023-03-02T17:14:59.097Z,38.95
2023-03-02T17:15:59.082Z,38.50
2023-03-02T17:16:59.058Z,38.49
2023-03-02T17:17:59.118Z,38.51
2023-03-02T17:18:59.937Z,38.69
2023-03-02T17:19:59.030Z,39.03
2023-03-02T17:20:59.024Z,39.10
2023-03-02T17:21:59.082Z,39.06
2023-03-02T17:22:59.093Z,39.10
2023-03-02T17:23:59.034Z,39.06
2023-03-02T17:24:59.067Z,38.98
2023-03-02T17:25:59.144Z,39.20
2023-03-02T17:26:59.188Z,39.14
2023-03-02T17:27:59.194Z,39.38
2023-03-02T17:28:59.261Z,39.35
2023-03-02T17:29:59.430Z,39.51
2023-03-02T17:30:59.443Z,39.52
2023-03-02T17:31:59.370Z,39.72
2023-03-02T17:32:59.412Z,39.74
2023-03-02T17:33:59.454Z,39.40
2023-03-02T17:34:59.460Z,39.70
2023-03-02T17:35:59.575Z,39.59
2023-03-02T17:36:59.576Z,39.68
2023-03-02T17:37:59.704Z,39.92
2023-03-02T17:38:59.661Z,40.04
2023-03-02T17:39:59.736Z,40.04
2023-03-02T17:40:59.914Z,40.00
2023-03-02T17:41:59.822Z,39.81
2023-03-02T17:42:59.988Z,40.03
2023-03-02T17:43:59.900Z,40.23
2023-03-02T17:44:59.848Z,40.48
2023-03-02T17:53:48.251Z,42.07
2023-03-02T17:56:09.234Z,41.69
2023-03-02T22:31:58.219Z,53.76
2023-03-02T22:57:57.893Z,50.44
2023-03-02T22:58:57.883Z,50.23
2023-03-02T22:59:57.911Z,50.07
2023-03-02T23:00:58.029Z,50.09
2023-03-02T23:01:58.045Z,50.10
2023-03-02T23:02:58.105Z,50.16
2023-03-02T23:03:58.085Z,50.40
2023-03-02T23:04:58.159Z,50.31
2023-03-02T23:05:58.209Z,50.33
2023-03-02T23:06:58.240Z,50.50
2023-03-02T23:07:58.312Z,50.58
2023-03-02T23:08:58.443Z,50.61
2023-03-02T23:09:58.382Z,50.82
2023-03-02T23:10:58.429Z,50.68
2023-03-02T23:11:58.485Z,50.54
2023-03-02T23:12:58.565Z,50.58
2023-03-02T23:13:58.564Z,50.47
2023-03-02T23:14:58.640Z,50.40
2023-03-02T23:15:58.685Z,50.58
2023-03-02T23:16:58.737Z,50.24
2023-03-02T23:17:58.761Z,49.85
2023-03-02T23:18:58.829Z,49.80
2023-03-02T23:19:58.902Z,49.56
2023-03-02T23:20:58.977Z,49.69
2023-03-02T23:21:59.031Z,49.58
2023-03-02T23:22:59.091Z,49.94
2023-03-02T23:27:57.979Z,50.98
2023-03-02T23:54:20.947Z,49.96
2023-03-02T23:55:20.888Z,50.04
2023-03-02T23:56:20.857Z,49.96
2023-03-02T23:57:20.871Z,49.80
2023-03-02T23:58:20.974Z,49.78
2023-03-02T23:59:20.895Z,49.50
